createdAt,value
2022-11-21T16:55:23.312Z,101259.88
2022-11-21T16:57:50.117Z,101263.63
2022-11-21T17:00:18.099Z,101257.88
2022-11-21T17:02:45.207Z,101252.75
2022-11-21T17:05:11.815Z,101266.06
2022-11-21T17:07:38.436Z,101263.69
2022-11-21T17:10:05.430Z,101257.81
2022-11-21T17:12:41.544Z,101258.94
2022-11-21T17:15:11.392Z,101239.09
2022-11-21T17:17:38.271Z,101221.81
2022-11-21T17:20:06.690Z,101246.41
2022-11-21T17:22:37.462Z,101241.28
2022-11-21T17:25:04.413Z,101242.44
2022-11-21T17:27:31.132Z,101239.13
2022-11-21T17:30:01.301Z,101228.91
2022-11-21T17:32:27.859Z,101240.97
2022-11-21T17:34:54.422Z,101234.03
2022-11-21T17:37:21.118Z,101229.50
2022-11-21T17:39:48.187Z,101244.34
2022-11-21T17:42:17.047Z,101246.97
2022-11-21T17:44:43.846Z,101249.59
2022-11-21T17:47:10.550Z,101254.16
2022-11-21T17:49:37.279Z,101245.50
2022-11-21T17:52:06.580Z,101255.13
2022-11-21T17:54:33.258Z,101246.44
2022-11-21T17:57:00.183Z,101236.81
2022-11-21T17:59:28.235Z,101242.00
2022-11-21T18:01:56.087Z,101249.91
2022-11-21T18:04:23.004Z,101257.72
2022-11-21T18:06:50.306Z,101249.09
2022-11-21T18:09:17.108Z,101254.25
2022-11-21T18:11:44.138Z,101262.16
2022-11-21T18:14:12.955Z,101267.31
2022-11-21T18:16:43.571Z,101262.88
2022-11-21T18:19:15.791Z,101248.06
2022-11-21T18:21:42.530Z,101251.59
2022-11-21T18:24:09.201Z,101229.81
2022-11-21T18:26:38.330Z,101249.88
2022-11-21T18:29:37.521Z,101245.66
2022-11-21T18:31:56.930Z,101247.47
2022-11-21T18:34:26.559Z,101243.03
2022-11-21T18:36:57.275Z,101243.03
2022-11-21T18:39:25.240Z,101244.00
2022-11-21T18:41:51.950Z,101249.19
2022-11-21T18:44:22.266Z,101256.78
2022-11-21T18:46:49.692Z,101255.94
2022-11-21T18:49:16.329Z,101277.63
2022-11-21T18:51:46.151Z,101273.31
2022-11-21T18:54:13.207Z,101275.97
2022-11-21T18:56:40.923Z,101267.34
2022-11-21T18:59:07.705Z,101263.22
2022-11-21T19:01:36.617Z,101253.72
2022-11-21T19:04:06.093Z,101223.72
2022-11-21T19:06:33.058Z,101254.50
2022-11-21T19:09:00.393Z,101260.69
2022-11-21T19:11:29.095Z,101256.31
2022-11-21T19:13:57.536Z,101257.19
2022-11-21T19:16:25.959Z,101249.34
2022-11-21T19:21:41.700Z,101257.22
2022-11-21T19:24:13.296Z,101260.75
2022-11-21T19:26:40.649Z,101255.34
2022-11-21T19:29:08.979Z,101258.00
2022-11-21T19:31:39.288Z,101251.84
2022-11-21T19:34:09.517Z,101245.69
2022-11-21T19:36:36.605Z,101253.59
2022-11-21T19:39:03.327Z,101267.47
2022-11-21T19:41:30.890Z,101263.16
2022-11-21T19:43:59.602Z,101256.19
2022-11-21T19:46:28.675Z,101255.34
2022-11-21T19:48:56.747Z,101241.41
2022-11-21T19:51:28.025Z,101253.78
2022-11-21T19:53:55.742Z,101261.56
2022-11-21T19:56:27.262Z,101267.63
2022-11-21T19:58:55.984Z,101262.34
2022-11-21T20:01:28.047Z,101260.69
2022-11-21T20:03:57.635Z,101256.44
2022-11-21T20:06:29.389Z,101251.13
2022-11-21T20:09:01.277Z,101253.72
2022-11-21T20:11:30.222Z,101258.25
2022-11-21T20:13:57.115Z,101260.06
2022-11-21T20:16:34.060Z,101252.22
2022-11-21T20:19:02.881Z,101264.34
2022-11-21T20:21:30.136Z,101262.66
2022-11-21T20:23:57.078Z,101254.75
2022-11-21T20:26:24.691Z,101260.81
2022-11-21T20:28:51.429Z,101253.81
2022-11-21T20:31:20.567Z,101257.38
2022-11-21T20:33:49.649Z,101230.16
2022-11-21T20:36:24.038Z,101264.19
2022-11-21T20:38:52.583Z,101243.31
2022-11-21T20:41:20.108Z,101266.00
2022-11-21T20:46:35.255Z,101256.34
2022-11-21T20:49:02.584Z,101267.59
2022-11-21T20:54:18.511Z,101221.47
2022-11-21T20:56:48.291Z,101245.25
2022-11-21T20:59:14.886Z,101253.97
2022-11-21T21:01:43.634Z,101265.28
2022-11-21T21:04:10.250Z,101260.94
2022-11-21T21:06:37.665Z,101252.16
2022-11-21T21:09:04.710Z,101247.94
2022-11-21T21:11:50.841Z,101252.97
2022-11-21T21:14:17.895Z,101255.56
2022-11-21T21:16:44.473Z,101252.03
2022-11-21T21:19:11.038Z,101256.50
2022-11-21T21:21:40.103Z,101257.25
2022-11-21T21:24:08.576Z,101250.03
2022-11-21T21:26:55.155Z,101246.50
2022-11-21T21:29:24.818Z,101254.34
2022-11-21T21:31:52.608Z,101247.38
2022-11-21T21:34:24.028Z,101260.41
2022-11-21T21:36:51.366Z,101248.47
2022-11-21T21:39:18.074Z,101248.31
2022-11-21T21:41:47.488Z,101262.22
2022-11-21T21:44:15.124Z,101256.03
2022-11-21T21:46:42.073Z,101261.41
2022-11-21T21:49:09.586Z,101252.78
2022-11-21T21:51:37.490Z,101254.59
2022-11-21T21:54:06.524Z,101247.69
2022-11-21T21:56:34.749Z,101249.47
2022-11-21T21:59:01.548Z,101248.47
2022-11-21T22:01:30.614Z,101245.03
2022-11-21T22:03:59.530Z,101236.22
2022-11-21T22:06:26.192Z,101249.09
2022-11-21T22:08:54.392Z,101240.34
2022-11-21T22:11:24.679Z,101236.91
2022-11-21T22:13:56.734Z,101233.31
2022-11-21T22:16:24.030Z,101230.72
2022-11-21T22:18:51.538Z,101238.63
2022-11-21T22:21:33.151Z,101238.03
2022-11-21T22:24:24.115Z,101231.13
2022-11-21T22:26:48.650Z,101232.06
2022-11-21T22:29:15.324Z,101235.56
2022-11-21T22:31:41.953Z,101229.53
2022-11-21T22:34:13.052Z,101226.03
2022-11-21T22:36:40.112Z,101227.91
2022-11-21T22:39:06.770Z,101213.84
2022-11-21T22:41:33.525Z,101224.31
2022-11-21T22:44:01.161Z,101229.47
2022-11-21T22:46:29.402Z,101223.31
2022-11-21T22:48:56.213Z,101218.81
2022-11-21T22:51:25.606Z,101221.66
2022-11-21T22:53:53.649Z,101226.00
2022-11-21T22:56:24.454Z,101219.09
2022-11-21T22:58:52.363Z,101219.13
2022-11-21T23:01:21.754Z,101222.59
2022-11-21T23:03:49.292Z,101216.34
2022-11-21T23:06:29.738Z,101225.25
2022-11-21T23:08:57.231Z,101228.78
2022-11-21T23:11:29.313Z,101217.66
2022-11-21T23:13:57.848Z,101219.50
2022-11-21T23:16:25.716Z,101231.47
2022-11-21T23:18:53.929Z,101220.41
2022-11-21T23:21:21.438Z,101191.44
2022-11-21T23:23:48.396Z,101220.31
2022-11-21T23:26:15.122Z,101224.38
2022-11-21T23:28:41.879Z,101233.16
2022-11-21T23:31:09.910Z,101224.34
2022-11-21T23:33:36.539Z,101224.38
2022-11-21T23:36:03.319Z,101229.66
2022-11-21T23:38:29.995Z,101228.78
2022-11-21T23:40:56.684Z,101224.44
2022-11-21T23:43:23.542Z,101225.28
2022-11-21T23:45:51.837Z,101227.91
2022-11-21T23:48:19.297Z,101226.22
2022-11-21T23:50:47.995Z,101213.25
2022-11-21T23:53:14.893Z,101196.63
2022-11-21T23:55:43.679Z,101209.84
2022-11-21T23:58:10.662Z,101202.03
